createdAt,value
2023-04-18T00:00:52.889Z,6.76
2023-04-18T00:01:52.972Z,6.72
2023-04-18T00:02:53.147Z,6.67
2023-04-18T00:03:53.268Z,6.69
2023-04-18T00:04:53.143Z,6.68
2023-04-18T00:05:52.997Z,6.61
2023-04-18T00:06:53.024Z,6.62
2023-04-18T00:07:53.044Z,6.59
2023-04-18T00:08:53.073Z,6.56
2023-04-18T00:09:53.066Z,6.54
2023-04-18T00:10:53.112Z,6.55
2023-04-18T00:11:53.105Z,6.52
2023-04-18T00:12:53.105Z,6.55
2023-04-18T00:13:53.139Z,6.57
2023-04-18T00:14:53.139Z,6.58
2023-04-18T00:15:53.155Z,6.44
2023-04-18T00:16:53.221Z,6.41
2023-04-18T00:17:53.295Z,6.45
2023-04-18T00:18:53.211Z,6.45
2023-04-18T00:19:53.237Z,6.41
2023-04-18T00:20:53.249Z,6.38
2023-04-18T00:21:53.329Z,6.37
2023-04-18T00:22:53.295Z,6.29
2023-04-18T00:23:53.348Z,6.33
2023-04-18T00:24:53.365Z,6.30
2023-04-18T00:25:53.368Z,6.31
2023-04-18T00:26:53.395Z,6.31
2023-04-18T00:27:53.446Z,6.27
2023-04-18T00:28:53.446Z,6.21
2023-04-18T00:29:53.466Z,6.26
2023-04-18T00:30:53.516Z,6.18
2023-04-18T00:31:53.550Z,6.19
2023-04-18T00:32:53.456Z,6.20
2023-04-18T00:33:53.407Z,6.23
2023-04-18T00:34:53.374Z,6.26
2023-04-18T00:35:53.340Z,6.18
2023-04-18T00:36:53.316Z,6.29
2023-04-18T00:37:53.302Z,6.22
2023-04-18T00:38:53.277Z,6.18
2023-04-18T00:39:53.258Z,6.16
2023-04-18T00:40:53.225Z,6.13
2023-04-18T00:41:53.202Z,6.16
2023-04-18T00:42:53.184Z,6.14
2023-04-18T00:43:53.337Z,6.11
2023-04-18T00:44:53.252Z,6.11
2023-04-18T00:45:53.145Z,6.10
2023-04-18T00:46:53.107Z,6.05
2023-04-18T00:47:53.153Z,6.11
2023-04-18T00:48:53.133Z,6.05
2023-04-18T00:49:53.161Z,6.05
2023-04-18T00:50:53.178Z,5.97
2023-04-18T00:51:53.220Z,6.04
2023-04-18T00:52:53.238Z,5.97
2023-04-18T00:53:53.250Z,5.97
2023-04-18T00:54:53.283Z,5.92
2023-04-18T00:55:53.295Z,5.90
2023-04-18T00:56:53.400Z,5.88
2023-04-18T00:57:53.348Z,5.91
2023-04-18T00:58:53.362Z,5.90
2023-04-18T00:59:53.391Z,5.90
2023-04-18T01:00:53.360Z,5.91
2023-04-18T01:01:53.567Z,5.91
2023-04-18T01:02:53.546Z,5.94
2023-04-18T01:03:53.423Z,5.91
2023-04-18T01:04:53.277Z,5.87
2023-04-18T01:05:53.237Z,5.91
2023-04-18T01:06:53.241Z,5.91
2023-04-18T01:07:53.199Z,5.85
2023-04-18T01:08:53.174Z,5.86
2023-04-18T01:09:53.173Z,5.75
2023-04-18T01:10:53.131Z,5.80
2023-04-18T01:11:53.106Z,5.82
2023-04-18T01:12:53.072Z,5.75
2023-04-18T01:13:53.050Z,5.77
2023-04-18T01:14:53.022Z,5.78
2023-04-18T01:15:53.086Z,5.69
2023-04-18T01:16:53.073Z,5.71
2023-04-18T01:17:53.110Z,5.76
2023-04-18T01:18:53.114Z,5.70
2023-04-18T01:19:53.130Z,5.69
2023-04-18T01:20:53.206Z,5.68
2023-04-18T01:21:53.162Z,5.68
2023-04-18T01:22:53.198Z,5.63
2023-04-18T01:23:53.195Z,5.69
2023-04-18T01:24:53.225Z,5.60
2023-04-18T01:25:53.237Z,5.63
2023-04-18T01:26:53.267Z,5.64
2023-04-18T01:27:53.293Z,5.55
2023-04-18T01:28:53.310Z,5.59
2023-04-18T01:29:53.347Z,5.57
2023-04-18T01:30:53.403Z,5.54
2023-04-18T01:31:53.405Z,5.51
2023-04-18T01:32:53.497Z,5.48
2023-04-18T01:33:53.448Z,5.53
2023-04-18T01:34:53.473Z,5.51
2023-04-18T01:35:53.518Z,5.46
2023-04-18T01:36:53.532Z,5.47
2023-04-18T01:37:53.556Z,5.47
2023-04-18T01:38:53.597Z,5.44
2023-04-18T01:39:53.603Z,5.45
2023-04-18T01:40:53.640Z,5.42
2023-04-18T01:41:53.697Z,5.45
2023-04-18T01:42:53.675Z,5.47
2023-04-18T01:43:53.697Z,5.36
2023-04-18T01:44:53.699Z,5.39
2023-04-18T01:45:53.716Z,5.33
2023-04-18T01:46:53.855Z,5.37
2023-04-18T01:47:53.770Z,5.35
2023-04-18T01:48:53.778Z,5.29
2023-04-18T01:49:53.801Z,5.39
2023-04-18T01:50:53.812Z,5.27
2023-04-18T01:51:53.826Z,5.27
2023-04-18T01:52:53.852Z,5.29
2023-04-18T01:53:53.870Z,5.29
2023-04-18T01:54:53.893Z,5.26
2023-04-18T01:55:53.938Z,5.28
2023-04-18T01:56:53.941Z,5.28
2023-04-18T01:57:53.965Z,5.26
2023-04-18T01:58:53.998Z,5.16
2023-04-18T01:59:53.966Z,5.17
2023-04-18T02:00:53.976Z,5.18
2023-04-18T02:01:53.966Z,5.19
2023-04-18T02:02:53.966Z,5.19
2023-04-18T02:03:54.212Z,5.20
2023-04-18T02:04:53.836Z,5.19
2023-04-18T02:05:53.805Z,5.19
2023-04-18T02:06:53.766Z,5.15
2023-04-18T02:07:53.740Z,5.12
2023-04-18T02:08:53.710Z,5.13
2023-04-18T02:09:53.684Z,5.14
2023-04-18T02:10:53.656Z,5.09
2023-04-18T02:11:53.619Z,5.14
2023-04-18T02:12:53.591Z,5.04
2023-04-18T02:13:53.619Z,5.04
2023-04-18T02:14:53.618Z,5.08
2023-04-18T02:15:53.650Z,5.08
2023-04-18T02:16:53.734Z,5.04
2023-04-18T02:17:53.728Z,5.04
2023-04-18T02:18:53.714Z,5.03
2023-04-18T02:19:53.735Z,4.95
2023-04-18T02:20:53.768Z,5.00
2023-04-18T02:21:53.772Z,4.99
2023-04-18T02:22:53.796Z,4.99
2023-04-18T02:23:53.847Z,4.98
2023-04-18T02:24:53.853Z,4.94
2023-04-18T02:25:53.868Z,4.91
2023-04-18T02:26:53.873Z,4.92
2023-04-18T02:27:53.908Z,4.90
2023-04-18T02:28:53.938Z,4.85
2023-04-18T02:29:53.959Z,4.93
2023-04-18T02:30:53.993Z,4.90
2023-04-18T02:31:54.053Z,4.89
2023-04-18T02:32:54.041Z,4.89
2023-04-18T02:33:54.065Z,4.86
2023-04-18T02:34:54.086Z,4.83
2023-04-18T02:35:54.140Z,4.84
2023-04-18T02:36:54.138Z,4.84
2023-04-18T02:37:54.175Z,4.82
2023-04-18T02:38:54.200Z,4.81
2023-04-18T02:39:54.247Z,4.78
2023-04-18T02:40:54.248Z,4.74
2023-04-18T02:41:54.290Z,4.73
2023-04-18T02:42:54.315Z,4.75
2023-04-18T02:43:54.323Z,4.82
2023-04-18T02:44:54.352Z,4.73
2023-04-18T02:45:54.401Z,4.72
2023-04-18T02:46:54.350Z,4.73
2023-04-18T02:47:56.470Z,4.74
2023-04-18T02:48:54.298Z,4.76
2023-04-18T02:49:54.277Z,4.76
2023-04-18T02:50:54.286Z,4.76
2023-04-18T02:51:54.317Z,4.73
2023-04-18T02:52:54.328Z,4.72
2023-04-18T02:53:54.366Z,4.69
2023-04-18T02:54:54.329Z,4.70
2023-04-18T02:55:54.298Z,4.70
2023-04-18T02:56:54.274Z,4.71
2023-04-18T02:57:54.268Z,3.97
2023-04-18T02:58:54.225Z,3.56
2023-04-18T02:59:54.186Z,3.30
2023-04-18T03:00:54.261Z,3.17
2023-04-18T03:01:54.165Z,3.01
2023-04-18T03:02:54.178Z,2.85
2023-04-18T03:03:54.082Z,2.69
2023-04-18T03:04:54.083Z,2.42
2023-04-18T03:05:54.073Z,2.32
2023-04-18T03:06:54.135Z,2.11
2023-04-18T03:07:54.176Z,1.96
2023-04-18T03:08:54.223Z,1.81
2023-04-18T03:09:54.287Z,1.69
2023-04-18T03:10:56.102Z,1.63
2023-04-18T03:11:54.646Z,1.53
2023-04-18T03:12:54.431Z,1.46
2023-04-18T03:13:54.472Z,1.41
2023-04-18T03:14:54.508Z,1.35
2023-04-18T03:15:54.586Z,1.30
2023-04-18T03:16:55.397Z,1.26
2023-04-18T03:17:54.558Z,1.23
2023-04-18T03:18:54.502Z,1.17
2023-04-18T03:19:54.512Z,1.14
2023-04-18T03:20:54.490Z,1.10
2023-04-18T03:21:54.483Z,1.06
2023-04-18T03:22:54.476Z,1.03
2023-04-18T03:23:54.480Z,0.99
2023-04-18T03:24:54.482Z,0.99
2023-04-18T03:25:54.485Z,0.93
2023-04-18T03:26:54.467Z,0.93
2023-04-18T03:27:54.456Z,0.88
2023-04-18T03:28:54.454Z,0.87
2023-04-18T03:29:54.453Z,0.86
2023-04-18T03:30:54.489Z,0.84
2023-04-18T03:31:54.465Z,0.82
2023-04-18T03:32:54.442Z,0.81
2023-04-18T03:33:54.444Z,0.78
2023-04-18T03:34:54.435Z,0.77
2023-04-18T03:35:54.442Z,0.74
2023-04-18T03:36:54.429Z,0.73
2023-04-18T03:37:54.444Z,0.74
2023-04-18T03:38:54.423Z,0.74
2023-04-18T03:39:54.410Z,0.74
2023-04-18T03:40:54.403Z,0.71
2023-04-18T03:41:54.384Z,0.71
2023-04-18T03:42:54.372Z,0.72
2023-04-18T03:43:54.384Z,0.70
2023-04-18T03:44:54.362Z,0.70
2023-04-18T03:45:54.373Z,0.67
2023-04-18T03:46:54.348Z,0.68
2023-04-18T03:47:54.417Z,0.68
2023-04-18T03:48:54.316Z,0.66
2023-04-18T03:49:54.319Z,0.66
2023-04-18T03:50:54.303Z,0.64
2023-04-18T03:51:54.320Z,0.63
2023-04-18T03:52:54.305Z,0.61
2023-04-18T03:53:54.324Z,0.60
2023-04-18T03:54:54.275Z,0.58
2023-04-18T03:55:54.272Z,0.59
2023-04-18T03:56:54.268Z,0.56
2023-04-18T03:57:54.258Z,0.56
2023-04-18T03:58:54.237Z,0.55
2023-04-18T03:59:54.248Z,0.54
2023-04-18T04:00:54.231Z,0.51
2023-04-18T04:01:54.310Z,0.50
2023-04-18T04:02:54.371Z,0.52
2023-04-18T04:03:54.401Z,0.51
2023-04-18T04:04:54.238Z,0.51
2023-04-18T04:05:54.195Z,0.50
2023-04-18T04:06:54.199Z,0.49
2023-04-18T04:07:54.152Z,0.49
2023-04-18T04:08:54.148Z,0.49
2023-04-18T04:09:54.133Z,0.50
2023-04-18T04:10:54.131Z,0.51
2023-04-18T04:11:54.120Z,0.51
2023-04-18T04:12:54.112Z,0.51
2023-04-18T04:13:54.100Z,0.52
2023-04-18T04:14:54.087Z,0.52
2023-04-18T04:15:54.156Z,0.52
2023-04-18T04:16:54.080Z,0.54
2023-04-18T04:17:54.126Z,0.55
2023-04-18T04:18:54.074Z,0.51
2023-04-18T04:19:54.055Z,0.53
2023-04-18T04:20:54.060Z,0.53
2023-04-18T04:21:54.096Z,0.52
2023-04-18T04:22:54.063Z,0.52
2023-04-18T04:23:54.075Z,0.52
2023-04-18T04:24:54.050Z,0.53
2023-04-18T04:25:54.046Z,0.52
2023-04-18T04:26:54.048Z,0.52
2023-04-18T04:27:54.050Z,0.53
2023-04-18T04:28:54.048Z,0.52
2023-04-18T04:29:54.052Z,0.52
2023-04-18T04:30:54.049Z,0.53
2023-04-18T04:31:54.116Z,0.52
2023-04-18T04:32:54.069Z,0.53
2023-04-18T04:33:54.038Z,0.54
2023-04-18T04:34:54.038Z,0.54
2023-04-18T04:35:54.033Z,0.56
2023-04-18T04:36:54.066Z,0.56
2023-04-18T04:37:54.135Z,0.55
2023-04-18T04:38:54.125Z,0.56
2023-04-18T04:39:54.149Z,0.56
2023-04-18T04:40:54.183Z,0.56
2023-04-18T04:41:54.206Z,0.58
2023-04-18T04:42:54.272Z,0.57
2023-04-18T04:43:54.275Z,0.59
2023-04-18T04:44:54.340Z,0.60
2023-04-18T04:45:54.357Z,0.61
2023-04-18T04:46:54.406Z,0.61
2023-04-18T04:47:54.419Z,0.63
2023-04-18T04:48:54.456Z,0.64
2023-04-18T04:49:54.480Z,0.65
2023-04-18T04:50:54.505Z,0.67
2023-04-18T04:51:54.542Z,0.69
2023-04-18T04:52:54.575Z,0.69
2023-04-18T04:53:54.609Z,0.70
2023-04-18T04:54:54.642Z,0.70
2023-04-18T04:55:54.675Z,0.68
2023-04-18T04:56:54.695Z,0.69
2023-04-18T04:57:54.727Z,0.70
2023-04-18T04:58:54.779Z,0.69
2023-04-18T04:59:54.801Z,0.68
2023-04-18T05:00:54.959Z,0.65
2023-04-18T05:01:54.886Z,0.66
2023-04-18T05:02:55.006Z,0.64
2023-04-18T05:03:55.014Z,0.64
2023-04-18T05:04:54.989Z,0.64
2023-04-18T05:05:55.033Z,0.64
2023-04-18T05:06:55.076Z,0.65
2023-04-18T05:07:55.113Z,0.63
2023-04-18T05:08:55.167Z,0.63
2023-04-18T05:09:55.184Z,0.63
2023-04-18T05:10:55.207Z,0.63
2023-04-18T05:11:55.258Z,0.62
2023-04-18T05:12:55.303Z,0.62
2023-04-18T05:13:55.291Z,0.62
2023-04-18T05:14:55.310Z,0.62
2023-04-18T05:15:55.293Z,0.62
2023-04-18T05:16:55.306Z,0.62
2023-04-18T05:17:55.307Z,0.62
2023-04-18T05:18:55.294Z,0.62
2023-04-18T05:19:55.301Z,0.61
2023-04-18T05:20:55.297Z,0.62
2023-04-18T05:21:55.293Z,0.60
2023-04-18T05:22:55.298Z,0.59
2023-04-18T05:23:55.288Z,0.55
2023-04-18T05:24:55.297Z,0.53
2023-04-18T05:25:55.283Z,0.52
2023-04-18T05:26:55.296Z,0.50
2023-04-18T05:27:55.335Z,0.51
2023-04-18T05:28:55.374Z,0.50
2023-04-18T05:29:55.402Z,0.50
2023-04-18T05:30:55.424Z,0.50
2023-04-18T05:31:55.384Z,0.48
2023-04-18T05:32:55.449Z,0.52
2023-04-18T05:33:55.424Z,0.62
2023-04-18T05:34:55.378Z,0.82
2023-04-18T05:35:55.376Z,1.05
2023-04-18T05:36:55.364Z,1.29
2023-04-18T05:37:55.372Z,1.44
2023-04-18T05:38:55.357Z,1.62
2023-04-18T05:39:55.337Z,1.85
2023-04-18T05:40:55.336Z,1.95
2023-04-18T05:41:55.321Z,2.10
2023-04-18T05:42:55.311Z,2.11
2023-04-18T05:44:04.676Z,2.16
2023-04-18T05:44:56.282Z,2.12
2023-04-18T05:45:57.646Z,2.21
2023-04-18T05:46:55.682Z,2.43
2023-04-18T05:47:55.599Z,2.91
2023-04-18T05:48:55.571Z,3.92
2023-04-18T05:49:55.643Z,4.18
2023-04-18T05:50:55.741Z,4.61
2023-04-18T05:51:55.741Z,5.06
2023-04-18T05:52:55.785Z,3.94
2023-04-18T05:53:55.880Z,1.07
2023-04-18T05:54:55.826Z,0.65
2023-04-18T05:55:55.824Z,0.57
2023-04-18T05:56:55.872Z,0.49
2023-04-18T05:57:55.923Z,0.48
2023-04-18T05:58:56.005Z,0.46
2023-04-18T05:59:56.048Z,0.48
2023-04-18T06:00:56.141Z,0.50
2023-04-18T06:01:56.218Z,0.50
2023-04-18T06:02:56.463Z,0.54
2023-04-18T06:03:56.409Z,0.65
2023-04-18T06:04:56.459Z,0.72
2023-04-18T06:05:56.352Z,0.73
2023-04-18T06:06:56.304Z,0.76
2023-04-18T06:07:56.325Z,0.84
2023-04-18T06:08:56.324Z,1.09
2023-04-18T06:09:56.335Z,1.74
2023-04-18T06:10:56.341Z,2.09
2023-04-18T06:11:56.340Z,1.86
2023-04-18T06:12:56.328Z,1.54
2023-04-18T06:13:56.359Z,1.39
2023-04-18T06:14:56.346Z,1.17
2023-04-18T06:15:56.373Z,1.13
2023-04-18T06:16:56.353Z,1.13
2023-04-18T06:17:56.451Z,1.13
2023-04-18T06:18:56.986Z,1.20
2023-04-18T06:19:56.481Z,1.29
2023-04-18T06:20:56.586Z,1.38
2023-04-18T06:21:56.605Z,1.23
2023-04-18T06:22:56.657Z,1.13
2023-04-18T06:23:56.782Z,1.11
2023-04-18T06:24:56.799Z,1.16
2023-04-18T06:25:56.849Z,1.26
2023-04-18T06:26:56.960Z,1.22
2023-04-18T06:27:56.984Z,1.25
2023-04-18T06:28:57.069Z,1.29
2023-04-18T06:29:57.120Z,1.28
2023-04-18T06:30:57.200Z,1.25
2023-04-18T06:31:57.279Z,1.26
2023-04-18T06:32:57.253Z,1.29
2023-04-18T06:33:57.232Z,1.33
2023-04-18T06:34:57.303Z,1.37
2023-04-18T06:35:57.260Z,1.44
2023-04-18T06:36:57.256Z,1.67
2023-04-18T06:37:57.254Z,1.93
2023-04-18T06:38:57.327Z,2.84
2023-04-18T06:39:57.395Z,3.37
2023-04-18T06:40:57.268Z,3.88
2023-04-18T06:41:57.271Z,4.52
2023-04-18T06:42:57.270Z,5.34
2023-04-18T06:44:02.837Z,5.37
2023-04-18T06:44:58.260Z,5.40
2023-04-18T06:45:57.303Z,5.60
2023-04-18T06:46:57.259Z,5.45
2023-04-18T06:47:57.319Z,3.55
2023-04-18T06:48:57.317Z,2.50
2023-04-18T06:49:57.250Z,2.26
2023-04-18T06:50:57.254Z,2.11
2023-04-18T06:51:57.248Z,2.07
2023-04-18T06:52:57.263Z,1.97
2023-04-18T06:53:57.247Z,1.89
2023-04-18T06:54:57.242Z,1.75
2023-04-18T06:55:57.238Z,1.78
2023-04-18T06:56:57.248Z,1.64
2023-04-18T06:57:57.243Z,1.39
2023-04-18T06:58:57.252Z,1.38
2023-04-18T06:59:57.248Z,1.47
2023-04-18T07:00:57.289Z,1.34
2023-04-18T07:01:57.277Z,1.18
2023-04-18T07:02:57.397Z,1.08
2023-04-18T07:03:57.413Z,1.00
2023-04-18T07:04:57.329Z,0.88
2023-04-18T07:05:57.347Z,0.76
2023-04-18T07:06:57.391Z,0.74
2023-04-18T07:07:57.436Z,0.54
2023-04-18T07:08:57.479Z,0.51
2023-04-18T07:09:57.512Z,0.45
2023-04-18T07:10:57.548Z,0.48
2023-04-18T07:11:57.671Z,0.52
2023-04-18T07:12:57.642Z,0.56
2023-04-18T07:13:57.682Z,0.50
2023-04-18T07:14:57.734Z,0.52
2023-04-18T07:15:57.784Z,0.50
2023-04-18T07:16:57.900Z,0.50
2023-04-18T07:17:57.879Z,0.50
2023-04-18T07:18:57.902Z,0.50
2023-04-18T07:19:57.932Z,0.50
2023-04-18T07:20:57.981Z,0.50
2023-04-18T07:21:57.990Z,0.45
2023-04-18T07:22:57.994Z,0.43
2023-04-18T07:23:58.009Z,0.39
2023-04-18T07:24:57.994Z,0.38
2023-04-18T07:25:57.999Z,0.37
2023-04-18T07:26:58.007Z,0.35
2023-04-18T07:27:58.097Z,0.38
2023-04-18T07:28:58.009Z,0.41
2023-04-18T07:29:57.999Z,0.51
2023-04-18T07:30:58.056Z,0.51
2023-04-18T07:31:57.993Z,0.50
2023-04-18T07:32:58.006Z,0.52
2023-04-18T07:33:58.004Z,0.52
2023-04-18T07:34:58.007Z,0.53
2023-04-18T07:35:58.023Z,0.59
2023-04-18T07:36:58.022Z,0.90
2023-04-18T07:37:58.017Z,1.49
2023-04-18T07:38:58.028Z,1.91
2023-04-18T07:39:58.040Z,1.93
2023-04-18T07:40:58.008Z,2.13
2023-04-18T07:41:58.009Z,2.73
2023-04-18T07:42:58.002Z,4.24
2023-04-18T07:43:58.147Z,8.66
2023-04-18T07:44:57.989Z,11.22
2023-04-18T07:45:58.034Z,13.67
2023-04-18T07:46:57.964Z,16.78
2023-04-18T07:47:57.979Z,19.41
2023-04-18T07:48:57.955Z,20.15
2023-04-18T07:49:57.927Z,22.08
2023-04-18T07:50:57.928Z,23.46
2023-04-18T07:51:57.917Z,24.76
2023-04-18T07:52:57.962Z,26.13
2023-04-18T07:53:57.994Z,26.96
2023-04-18T07:54:58.035Z,27.64
2023-04-18T07:55:58.070Z,27.93
2023-04-18T07:56:58.116Z,28.12
2023-04-18T07:57:58.108Z,28.21
2023-04-18T07:58:58.095Z,28.74
2023-04-18T07:59:58.256Z,29.64
2023-04-18T08:00:58.043Z,28.99
2023-04-18T08:01:58.073Z,27.90
2023-04-18T08:02:58.173Z,26.73
2023-04-18T08:03:58.059Z,25.06
2023-04-18T08:04:58.239Z,23.58
2023-04-18T08:05:57.954Z,22.61
2023-04-18T08:06:57.908Z,21.53
2023-04-18T08:07:57.882Z,20.20
2023-04-18T08:08:57.862Z,19.38
2023-04-18T08:09:57.836Z,18.64
2023-04-18T08:10:57.814Z,17.91
2023-04-18T08:11:57.780Z,16.68
2023-04-18T08:12:57.756Z,15.25
2023-04-18T08:13:57.717Z,15.31
2023-04-18T08:14:57.715Z,15.34
2023-04-18T08:15:57.849Z,15.74
2023-04-18T08:16:57.726Z,15.04
2023-04-18T08:17:57.780Z,15.01
2023-04-18T08:18:57.798Z,14.33
2023-04-18T08:19:57.842Z,13.12
2023-04-18T08:20:57.872Z,13.99
2023-04-18T08:21:57.907Z,13.29
2023-04-18T08:23:07.552Z,12.10
2023-04-18T08:23:58.893Z,12.15
2023-04-18T08:25:05.059Z,12.43
2023-04-18T08:25:58.872Z,12.16
2023-04-18T08:26:57.832Z,12.58
2023-04-18T08:27:57.813Z,13.32
2023-04-18T08:28:57.813Z,14.01
2023-04-18T08:29:57.786Z,12.22
2023-04-18T08:30:57.745Z,12.65
2023-04-18T08:31:57.931Z,13.69
2023-04-18T08:32:57.737Z,14.26
2023-04-18T08:33:57.688Z,12.23
2023-04-18T08:34:57.658Z,12.56
2023-04-18T08:35:57.628Z,12.69
2023-04-18T08:36:57.606Z,12.56
2023-04-18T08:37:57.563Z,11.40
2023-04-18T08:38:57.524Z,10.33
2023-04-18T08:39:57.525Z,9.88
2023-04-18T08:40:57.466Z,9.06
2023-04-18T08:41:57.449Z,8.05
2023-04-18T08:42:57.410Z,7.23
2023-04-18T08:43:57.386Z,7.62
2023-04-18T08:44:57.368Z,7.52
2023-04-18T08:45:57.371Z,7.62
2023-04-18T08:46:57.309Z,7.63
2023-04-18T08:47:57.355Z,8.13
2023-04-18T08:48:57.248Z,8.28
2023-04-18T08:49:57.238Z,7.78
2023-04-18T08:50:57.240Z,8.48
2023-04-18T08:51:57.245Z,9.27
2023-04-18T08:52:57.253Z,9.63
2023-04-18T08:53:57.281Z,10.29
2023-04-18T08:54:57.242Z,9.96
2023-04-18T08:55:57.420Z,10.05
2023-04-18T08:56:57.180Z,10.33
2023-04-18T08:57:57.148Z,10.53
2023-04-18T08:58:57.115Z,10.97
2023-04-18T08:59:57.089Z,11.29
2023-04-18T09:00:57.124Z,12.51
2023-04-18T09:01:57.260Z,13.09
2023-04-18T09:02:57.430Z,14.21
2023-04-18T09:03:57.059Z,14.32
2023-04-18T09:04:56.929Z,14.63
2023-04-18T09:05:56.895Z,14.43
2023-04-18T09:06:56.872Z,14.13
2023-04-18T09:07:56.828Z,14.47
2023-04-18T09:08:56.809Z,14.60
2023-04-18T09:09:56.780Z,14.39
2023-04-18T09:10:56.735Z,14.47
2023-04-18T09:11:56.710Z,14.28
2023-04-18T09:12:56.703Z,13.10
2023-04-18T09:13:56.705Z,13.47
2023-04-18T09:14:56.744Z,13.26
2023-04-18T09:15:56.714Z,12.40
2023-04-18T09:16:56.744Z,13.04
2023-04-18T09:17:56.811Z,13.85
2023-04-18T09:18:56.736Z,14.62
2023-04-18T09:19:56.927Z,14.33
2023-04-18T09:20:56.744Z,14.43
2023-04-18T09:21:56.689Z,14.47
2023-04-18T09:22:56.678Z,14.47
2023-04-18T09:23:56.623Z,14.74
2023-04-18T09:24:56.586Z,16.03
2023-04-18T09:25:56.565Z,18.98
2023-04-18T09:26:56.518Z,20.68
2023-04-18T09:27:56.489Z,21.67
2023-04-18T09:28:56.453Z,22.54
2023-04-18T09:29:57.935Z,23.61
2023-04-18T09:30:56.416Z,24.96
2023-04-18T09:31:56.360Z,26.14
2023-04-18T09:32:56.368Z,26.69
2023-04-18T09:33:56.330Z,27.73
2023-04-18T09:34:56.269Z,28.58
2023-04-18T09:35:56.311Z,29.70
2023-04-18T09:36:56.248Z,30.38
2023-04-18T09:37:56.205Z,31.45
2023-04-18T09:38:57.040Z,32.63
2023-04-18T09:39:56.145Z,33.62
2023-04-18T09:40:56.140Z,34.44
2023-04-18T09:41:56.135Z,34.40
2023-04-18T09:42:56.125Z,35.14
2023-04-18T09:43:56.081Z,35.30
2023-04-18T09:44:56.942Z,35.49
2023-04-18T09:45:56.038Z,35.96
2023-04-18T09:46:56.021Z,37.17
2023-04-18T09:47:56.001Z,39.36
2023-04-18T09:48:55.916Z,39.36
2023-04-18T09:49:55.876Z,38.19
2023-04-18T09:50:55.856Z,37.30
2023-04-18T09:51:55.848Z,35.16
2023-04-18T09:52:55.788Z,32.80
2023-04-18T09:53:55.755Z,32.88
2023-04-18T09:54:55.740Z,33.29
2023-04-18T09:55:57.611Z,31.08
2023-04-18T09:56:55.653Z,30.59
2023-04-18T09:57:55.622Z,30.06
2023-04-18T09:58:55.611Z,31.85
2023-04-18T09:59:55.594Z,29.70
2023-04-18T10:00:55.563Z,26.46
2023-04-18T10:01:55.602Z,25.34
2023-04-18T10:02:55.572Z,25.26
2023-04-18T10:03:55.524Z,23.71
2023-04-18T10:04:55.510Z,21.96
2023-04-18T10:05:57.690Z,20.96
2023-04-18T10:06:55.384Z,21.02
2023-04-18T10:07:55.360Z,21.03
2023-04-18T10:08:55.310Z,19.67
2023-04-18T10:09:55.306Z,16.86
2023-04-18T10:10:55.265Z,16.78
2023-04-18T10:11:55.229Z,15.64
2023-04-18T10:12:55.204Z,12.35
2023-04-18T10:13:55.167Z,11.87
2023-04-18T10:14:55.130Z,11.29
2023-04-18T10:15:55.112Z,9.97
2023-04-18T10:16:55.062Z,8.78
2023-04-18T10:18:04.331Z,6.81
2023-04-18T10:18:55.998Z,6.82
2023-04-18T10:19:54.979Z,6.83
2023-04-18T10:20:54.942Z,6.84
2023-04-18T10:21:54.918Z,6.78
2023-04-18T10:22:54.872Z,6.74
2023-04-18T10:23:54.844Z,6.19
2023-04-18T10:24:54.812Z,6.18
2023-04-18T10:25:54.782Z,5.43
2023-04-18T10:26:54.748Z,5.15
2023-04-18T10:27:54.712Z,5.90
2023-04-18T10:28:55.058Z,5.57
2023-04-18T10:29:54.642Z,5.13
2023-04-18T10:30:54.617Z,5.45
2023-04-18T10:31:54.665Z,4.97
2023-04-18T10:32:54.612Z,4.78
2023-04-18T10:34:03.888Z,4.28
2023-04-18T10:34:54.468Z,4.28
2023-04-18T10:35:54.462Z,4.17
2023-04-18T10:36:54.396Z,4.13
2023-04-18T10:37:54.367Z,4.33
2023-04-18T10:38:54.327Z,4.41
2023-04-18T10:39:54.297Z,4.99
2023-04-18T10:40:54.266Z,5.49
2023-04-18T10:41:54.232Z,6.02
2023-04-18T10:42:54.214Z,6.90
2023-04-18T10:43:54.204Z,7.19
2023-04-18T10:44:54.151Z,7.49
2023-04-18T10:45:54.138Z,7.90
2023-04-18T10:46:54.132Z,8.34
2023-04-18T10:47:54.083Z,8.40
2023-04-18T10:48:54.035Z,9.28
2023-04-18T10:49:53.988Z,8.12
2023-04-18T10:50:53.956Z,6.60
2023-04-18T10:51:53.924Z,6.61
2023-04-18T10:52:53.886Z,6.68
2023-04-18T10:53:53.856Z,5.91
2023-04-18T10:54:53.819Z,5.30
2023-04-18T10:55:53.799Z,5.07
2023-04-18T10:56:53.783Z,4.84
2023-04-18T10:57:53.729Z,4.92
2023-04-18T10:58:53.695Z,5.00
2023-04-18T10:59:53.638Z,4.85
2023-04-18T11:00:53.626Z,4.85
2023-04-18T11:01:53.596Z,4.51
2023-04-18T11:02:53.821Z,4.58
2023-04-18T11:03:53.648Z,4.27
2023-04-18T11:04:53.458Z,4.45
2023-04-18T11:05:53.416Z,4.50
2023-04-18T11:06:53.395Z,4.81
2023-04-18T11:07:53.374Z,4.92
2023-04-18T11:08:53.324Z,4.90
2023-04-18T11:09:53.292Z,4.73
2023-04-18T11:10:53.254Z,4.69
2023-04-18T11:11:53.285Z,4.99
2023-04-18T11:12:53.230Z,5.52
2023-04-18T11:13:53.184Z,5.62
2023-04-18T11:14:53.138Z,5.79
2023-04-18T11:15:53.112Z,6.10
2023-04-18T11:16:53.119Z,6.75
2023-04-18T11:17:53.083Z,6.76
2023-04-18T11:18:53.017Z,6.01
2023-04-18T11:19:52.974Z,4.83
2023-04-18T11:20:52.934Z,4.71
2023-04-18T11:21:52.932Z,4.48
2023-04-18T11:22:52.872Z,3.63
2023-04-18T11:23:52.854Z,3.61
2023-04-18T11:24:52.795Z,3.76
2023-04-18T11:25:52.778Z,3.79
2023-04-18T11:26:52.722Z,3.95
2023-04-18T11:27:52.691Z,4.53
2023-04-18T11:28:52.665Z,5.37
2023-04-18T11:29:52.600Z,6.92
2023-04-18T11:30:52.566Z,7.35
2023-04-18T11:31:53.034Z,7.38
2023-04-18T11:32:52.529Z,7.56
2023-04-18T11:33:52.473Z,8.08
2023-04-18T11:34:52.395Z,8.94
2023-04-18T11:35:52.362Z,10.30
2023-04-18T11:36:52.332Z,10.40
2023-04-18T11:37:52.287Z,9.20
2023-04-18T11:38:52.252Z,9.94
2023-04-18T11:39:52.208Z,9.95
2023-04-18T11:40:52.170Z,11.51
2023-04-18T11:41:52.161Z,11.87
2023-04-18T11:42:52.102Z,11.40
2023-04-18T11:43:52.094Z,9.49
2023-04-18T11:44:52.043Z,8.52
2023-04-18T11:45:52.054Z,8.57
2023-04-18T11:46:51.992Z,7.39
2023-04-18T11:47:51.983Z,7.84
2023-04-18T11:48:51.911Z,8.38
2023-04-18T11:49:51.895Z,8.39
2023-04-18T11:50:51.852Z,8.39
2023-04-18T11:51:51.852Z,7.96
2023-04-18T11:52:51.798Z,8.12
2023-04-18T11:53:51.748Z,8.31
2023-04-18T11:54:51.712Z,8.10
2023-04-18T11:55:51.681Z,7.37
2023-04-18T11:56:51.649Z,5.54
2023-04-18T11:57:51.599Z,6.55
2023-04-18T11:58:51.589Z,7.66
2023-04-18T11:59:51.550Z,6.42
2023-04-18T12:00:51.481Z,7.62
2023-04-18T12:01:53.100Z,7.64
2023-04-18T12:02:51.574Z,7.33
2023-04-18T12:03:51.482Z,7.05
2023-04-18T12:04:51.566Z,6.93
2023-04-18T12:05:51.480Z,7.11
2023-04-18T12:06:51.281Z,6.44
2023-04-18T12:07:51.227Z,6.82
2023-04-18T12:08:52.384Z,6.65
2023-04-18T12:09:51.147Z,5.72
2023-04-18T12:10:51.121Z,5.82
2023-04-18T12:11:51.097Z,5.70
2023-04-18T12:12:51.053Z,5.15
2023-04-18T12:13:51.010Z,5.54
2023-04-18T12:14:50.975Z,5.47
2023-04-18T12:15:51.098Z,5.88
2023-04-18T12:16:50.931Z,5.93
2023-04-18T12:17:51.058Z,5.73
2023-04-18T12:18:50.855Z,5.44
2023-04-18T12:19:50.839Z,4.99
2023-04-18T12:20:50.861Z,5.00
2023-04-18T12:21:50.786Z,5.06
2023-04-18T12:22:50.735Z,4.85
2023-04-18T12:23:50.707Z,4.79
2023-04-18T12:24:50.671Z,4.73
2023-04-18T12:25:50.638Z,4.80
2023-04-18T12:26:50.640Z,5.07
2023-04-18T12:27:50.580Z,5.36
2023-04-18T12:28:50.545Z,5.45
2023-04-18T12:29:50.533Z,5.79
2023-04-18T12:30:50.488Z,5.81
2023-04-18T12:31:50.512Z,6.01
2023-04-18T12:32:50.589Z,6.48
2023-04-18T12:33:50.385Z,7.22
2023-04-18T12:34:50.343Z,7.52
2023-04-18T12:35:50.310Z,7.74
2023-04-18T12:36:50.325Z,7.76
2023-04-18T12:37:50.266Z,7.85
2023-04-18T12:38:50.219Z,8.14
2023-04-18T12:39:50.156Z,8.77
2023-04-18T12:40:50.141Z,9.82
2023-04-18T12:41:50.172Z,10.64
2023-04-18T12:42:50.046Z,10.85
2023-04-18T12:43:49.993Z,11.26
2023-04-18T12:44:49.963Z,11.55
2023-04-18T12:45:49.947Z,12.11
2023-04-18T12:46:49.987Z,12.62
2023-04-18T12:47:50.046Z,13.43
2023-04-18T12:48:50.015Z,14.07
2023-04-18T12:49:50.036Z,14.67
2023-04-18T12:50:50.073Z,15.08
2023-04-18T12:51:50.089Z,15.46
2023-04-18T12:52:50.131Z,15.60
2023-04-18T12:53:50.074Z,15.65
2023-04-18T12:54:50.037Z,15.82
2023-04-18T12:55:50.008Z,16.17
2023-04-18T12:56:49.977Z,17.07
2023-04-18T12:57:49.922Z,18.51
2023-04-18T12:58:49.873Z,18.95
2023-04-18T12:59:49.842Z,19.60
2023-04-18T13:00:49.815Z,19.85
2023-04-18T13:01:49.799Z,19.97
2023-04-18T13:02:49.885Z,20.83
2023-04-18T13:03:59.871Z,20.88
2023-04-18T13:04:50.671Z,20.91
2023-04-18T13:05:49.573Z,21.09
2023-04-18T13:06:49.510Z,21.44
2023-04-18T13:07:49.534Z,22.22
2023-04-18T13:08:49.423Z,23.82
2023-04-18T13:09:49.380Z,23.64
2023-04-18T13:10:49.355Z,24.13
2023-04-18T13:11:49.680Z,25.58
2023-04-18T13:12:49.249Z,25.43